Aviation Digital Data Service (ADDS)

Output produced by METARs form (0051 UTC 20 April 2019)
found at http://www.aviationweather.gov/metar/data/
 
METAR text: ZSQD 200000Z VRB01MPS 9999 SCT010 13/07 Q1014 NOSIG
Conditions at: ZSQD (QINGDAO/TSINGTAO, CN) observed 0000 UTC 20 April 2019
Temperature: 13.0°C (55°F)
Dewpoint: 7.0°C (45°F) [RH = 67%]
Pressure (altimeter): 29.94 inches Hg (1014.0 mb)
Winds: variable direction winds at 2 MPH (2 knots; 1.0 m/s)
Visibility: 6 or more miles (10+ km)
Ceiling: at least 12,000 feet AGL
Clouds: scattered clouds at 1000 feet AGL
Weather: no significant weather observed at this time

METAR text: ZSQD 192300Z 17002MPS 140V200 CAVOK 12/08 Q1014 NOSIG
Conditions at: ZSQD (QINGDAO/TSINGTAO, CN) observed 2300 UTC 19 April 2019
Temperature: 12.0°C (54°F)
Dewpoint: 8.0°C (46°F) [RH = 76%]
Pressure (altimeter): 29.94 inches Hg (1014.0 mb)
Winds: from the S (170 degrees) at 5 MPH (4 knots; 2.1 m/s)
Visibility: 6 or more miles (10+ km)
Ceiling: ceiling and visibility are OK
Clouds: unknown
Weather: no significant weather observed at this time

METAR text: ZSQD 192200Z VRB01MPS CAVOK 11/01 Q1013 NOSIG
Conditions at: ZSQD (QINGDAO/TSINGTAO, CN) observed 2200 UTC 19 April 2019
Temperature: 11.0°C (52°F)
Dewpoint: 1.0°C (34°F) [RH = 50%]
Pressure (altimeter): 29.91 inches Hg (1013.0 mb)
Winds: variable direction winds at 2 MPH (2 knots; 1.0 m/s)
Visibility: 6 or more miles (10+ km)
Ceiling: ceiling and visibility are OK
Clouds: unknown
Weather: no significant weather observed at this time

METAR text: ZSQD 192100Z VRB01MPS CAVOK 10/01 Q1013 NOSIG
Conditions at: ZSQD (QINGDAO/TSINGTAO, CN) observed 2100 UTC 19 April 2019
Temperature: 10.0°C (50°F)
Dewpoint: 1.0°C (34°F) [RH = 53%]
Pressure (altimeter): 29.91 inches Hg (1013.0 mb)
Winds: variable direction winds at 2 MPH (2 knots; 1.0 m/s)
Visibility: 6 or more miles (10+ km)
Ceiling: ceiling and visibility are OK
Clouds: unknown
Weather: no significant weather observed at this time

METAR text: ZSQD 192000Z 05001MPS CAVOK 10/01 Q1014 NOSIG
Conditions at: ZSQD (QINGDAO/TSINGTAO, CN) observed 2000 UTC 19 April 2019
Temperature: 10.0°C (50°F)
Dewpoint: 1.0°C (34°F) [RH = 53%]
Pressure (altimeter): 29.94 inches Hg (1014.0 mb)
Winds: from the NE (50 degrees) at 2 MPH (2 knots; 1.0 m/s)
Visibility: 6 or more miles (10+ km)
Ceiling: ceiling and visibility are OK
Clouds: unknown
Weather: no significant weather observed at this time

METAR text: ZSQD 191900Z 18002MPS CAVOK 11/05 Q1014 NOSIG
Conditions at: ZSQD (QINGDAO/TSINGTAO, CN) observed 1900 UTC 19 April 2019
Temperature: 11.0°C (52°F)
Dewpoint: 5.0°C (41°F) [RH = 66%]
Pressure (altimeter): 29.94 inches Hg (1014.0 mb)
Winds: from the S (180 degrees) at 5 MPH (4 knots; 2.1 m/s)
Visibility: 6 or more miles (10+ km)
Ceiling: ceiling and visibility are OK
Clouds: unknown
Weather: no significant weather observed at this time

METAR text: ZSQD 191800Z 18003MPS CAVOK 11/03 Q1014 NOSIG
Conditions at: ZSQD (QINGDAO/TSINGTAO, CN) observed 1800 UTC 19 April 2019
Temperature: 11.0°C (52°F)
Dewpoint: 3.0°C (37°F) [RH = 58%]
Pressure (altimeter): 29.94 inches Hg (1014.0 mb)
Winds: from the S (180 degrees) at 7 MPH (6 knots; 3.1 m/s)
Visibility: 6 or more miles (10+ km)
Ceiling: ceiling and visibility are OK
Clouds: unknown
Weather: no significant weather observed at this time

METAR text: ZSQD 191700Z 17004MPS CAVOK 11/M00 Q1014 NOSIG
Conditions at: ZSQD (QINGDAO/TSINGTAO, CN) observed 1700 UTC 19 April 2019
Temperature: 11.0°C (52°F)
Dewpoint: 0.0°C (32°F) [RH = 47%]
Pressure (altimeter): 29.94 inches Hg (1014.0 mb)
Winds: from the S (170 degrees) at 9 MPH (8 knots; 4.1 m/s)
Visibility: 6 or more miles (10+ km)
Ceiling: ceiling and visibility are OK
Clouds: unknown
Weather: no significant weather observed at this time

METAR text: ZSQD 191600Z 18003MPS CAVOK 11/M03 Q1015 NOSIG
Conditions at: ZSQD (QINGDAO/TSINGTAO, CN) observed 1600 UTC 19 April 2019
Temperature: 11.0°C (52°F)
Dewpoint: -3.0°C (27°F) [RH = 37%]
Pressure (altimeter): 29.97 inches Hg (1015.0 mb)
Winds: from the S (180 degrees) at 7 MPH (6 knots; 3.1 m/s)
Visibility: 6 or more miles (10+ km)
Ceiling: ceiling and visibility are OK
Clouds: unknown
Weather: no significant weather observed at this time

METAR text: ZSQD 191500Z 18003MPS CAVOK 12/M04 Q1015 NOSIG
Conditions at: ZSQD (QINGDAO/TSINGTAO, CN) observed 1500 UTC 19 April 2019
Temperature: 12.0°C (54°F)
Dewpoint: -4.0°C (25°F) [RH = 32%]
Pressure (altimeter): 29.97 inches Hg (1015.0 mb)
Winds: from the S (180 degrees) at 7 MPH (6 knots; 3.1 m/s)
Visibility: 6 or more miles (10+ km)
Ceiling: ceiling and visibility are OK
Clouds: unknown
Weather: no significant weather observed at this time

METAR text: ZSQD 191400Z 18003MPS CAVOK 12/M04 Q1016 NOSIG
Conditions at: ZSQD (QINGDAO/TSINGTAO, CN) observed 1400 UTC 19 April 2019
Temperature: 12.0°C (54°F)
Dewpoint: -4.0°C (25°F) [RH = 32%]
Pressure (altimeter): 30.00 inches Hg (1016.0 mb)
Winds: from the S (180 degrees) at 7 MPH (6 knots; 3.1 m/s)
Visibility: 6 or more miles (10+ km)
Ceiling: ceiling and visibility are OK
Clouds: unknown
Weather: no significant weather observed at this time

METAR text: ZSQD 191300Z 16003MPS CAVOK 12/M04 Q1016 NOSIG
Conditions at: ZSQD (QINGDAO/TSINGTAO, CN) observed 1300 UTC 19 April 2019
Temperature: 12.0°C (54°F)
Dewpoint: -4.0°C (25°F) [RH = 32%]
Pressure (altimeter): 30.00 inches Hg (1016.0 mb)
Winds: from the SSE (160 degrees) at 7 MPH (6 knots; 3.1 m/s)
Visibility: 6 or more miles (10+ km)
Ceiling: ceiling and visibility are OK
Clouds: unknown
Weather: no significant weather observed at this time

METAR text: ZSQD 191200Z 16004MPS CAVOK 13/M03 Q1016 NOSIG
Conditions at: ZSQD (QINGDAO/TSINGTAO, CN) observed 1200 UTC 19 April 2019
Temperature: 13.0°C (55°F)
Dewpoint: -3.0°C (27°F) [RH = 33%]
Pressure (altimeter): 30.00 inches Hg (1016.0 mb)
Winds: from the SSE (160 degrees) at 9 MPH (8 knots; 4.1 m/s)
Visibility: 6 or more miles (10+ km)
Ceiling: ceiling and visibility are OK
Clouds: unknown
Weather: no significant weather observed at this time

METAR text: ZSQD 191100Z 17004MPS CAVOK 14/M03 Q1015 NOSIG
Conditions at: ZSQD (QINGDAO/TSINGTAO, CN) observed 1100 UTC 19 April 2019
Temperature: 14.0°C (57°F)
Dewpoint: -3.0°C (27°F) [RH = 31%]
Pressure (altimeter): 29.97 inches Hg (1015.0 mb)
Winds: from the S (170 degrees) at 9 MPH (8 knots; 4.1 m/s)
Visibility: 6 or more miles (10+ km)
Ceiling: ceiling and visibility are OK
Clouds: unknown
Weather: no significant weather observed at this time

METAR text: ZSQD 191000Z 24002MPS 200V270 CAVOK 17/01 Q1015 NOSIG
Conditions at: ZSQD (QINGDAO/TSINGTAO, CN) observed 1000 UTC 19 April 2019
Temperature: 17.0°C (63°F)
Dewpoint: 1.0°C (34°F) [RH = 34%]
Pressure (altimeter): 29.97 inches Hg (1015.0 mb)
Winds: from the WSW (240 degrees) at 5 MPH (4 knots; 2.1 m/s)
Visibility: 6 or more miles (10+ km)
Ceiling: ceiling and visibility are OK
Clouds: unknown
Weather: no significant weather observed at this time

METAR text: ZSQD 190900Z 23003MPS 200V260 CAVOK 18/M03 Q1015 NOSIG
Conditions at: ZSQD (QINGDAO/TSINGTAO, CN) observed 0900 UTC 19 April 2019
Temperature: 18.0°C (64°F)
Dewpoint: -3.0°C (27°F) [RH = 24%]
Pressure (altimeter): 29.97 inches Hg (1015.0 mb)
Winds: from the SW (230 degrees) at 7 MPH (6 knots; 3.1 m/s)
Visibility: 6 or more miles (10+ km)
Ceiling: ceiling and visibility are OK
Clouds: unknown
Weather: no significant weather observed at this time

METAR text: ZSQD 190800Z 24004MPS 220V280 CAVOK 18/M03 Q1015 BECMG TL0930 18005MPS
Conditions at: ZSQD (QINGDAO/TSINGTAO, CN) observed 0800 UTC 19 April 2019
Temperature: 18.0°C (64°F)
Dewpoint: -3.0°C (27°F) [RH = 24%]
Pressure (altimeter): 29.97 inches Hg (1015.0 mb)
Winds: from the WSW (240 degrees) at 9 MPH (8 knots; 4.1 m/s)
Visibility: 6 or more miles (10+ km)
Ceiling: ceiling and visibility are OK
Clouds: unknown
Weather: no significant weather observed at this time

METAR text: ZSQD 190700Z 23005MPS 200V260 CAVOK 19/M02 Q1015 BECMG TL0830 17004MPS
Conditions at: ZSQD (QINGDAO/TSINGTAO, CN) observed 0700 UTC 19 April 2019
Temperature: 19.0°C (66°F)
Dewpoint: -2.0°C (28°F) [RH = 24%]
Pressure (altimeter): 29.97 inches Hg (1015.0 mb)
Winds: from the SW (230 degrees) at 12 MPH (10 knots; 5.1 m/s)
Visibility: 6 or more miles (10+ km)
Ceiling: ceiling and visibility are OK
Clouds: unknown
Weather: no significant weather observed at this time

METAR text: ZSQD 190600Z VRB02MPS CAVOK 19/M00 Q1016 BECMG TL0730 10005MPS
Conditions at: ZSQD (QINGDAO/TSINGTAO, CN) observed 0600 UTC 19 April 2019
Temperature: 19.0°C (66°F)
Dewpoint: 0.0°C (32°F) [RH = 28%]
Pressure (altimeter): 30.00 inches Hg (1016.0 mb)
Winds: variable direction winds at 5 MPH (4 knots; 2.1 m/s)
Visibility: 6 or more miles (10+ km)
Ceiling: ceiling and visibility are OK
Clouds: unknown
Weather: no significant weather observed at this time

METAR text: ZSQD 190500Z 03005MPS 360V060 CAVOK 20/M05 Q1017 BECMG TL0630 10004MPS
Conditions at: ZSQD (QINGDAO/TSINGTAO, CN) observed 0500 UTC 19 April 2019
Temperature: 20.0°C (68°F)
Dewpoint: -5.0°C (23°F) [RH = 18%]
Pressure (altimeter): 30.03 inches Hg (1017.0 mb)
Winds: from the NNE (30 degrees) at 12 MPH (10 knots; 5.1 m/s)
Visibility: 6 or more miles (10+ km)
Ceiling: ceiling and visibility are OK
Clouds: unknown
Weather: no significant weather observed at this time

METAR text: ZSQD 190400Z VRB04MPS CAVOK 19/M05 Q1017 NOSIG
Conditions at: ZSQD (QINGDAO/TSINGTAO, CN) observed 0400 UTC 19 April 2019
Temperature: 19.0°C (66°F)
Dewpoint: -5.0°C (23°F) [RH = 19%]
Pressure (altimeter): 30.03 inches Hg (1017.0 mb)
Winds: variable direction winds at 9 MPH (8 knots; 4.1 m/s)
Visibility: 6 or more miles (10+ km)
Ceiling: ceiling and visibility are OK
Clouds: unknown
Weather: no significant weather observed at this time

METAR text: ZSQD 190300Z 08002MPS 360V160 CAVOK 17/M04 Q1018 NOSIG
Conditions at: ZSQD (QINGDAO/TSINGTAO, CN) observed 0300 UTC 19 April 2019
Temperature: 17.0°C (63°F)
Dewpoint: -4.0°C (25°F) [RH = 23%]
Pressure (altimeter): 30.06 inches Hg (1018.0 mb)
Winds: from the E (80 degrees) at 5 MPH (4 knots; 2.1 m/s)
Visibility: 6 or more miles (10+ km)
Ceiling: ceiling and visibility are OK
Clouds: unknown
Weather: no significant weather observed at this time

METAR text: ZSQD 190200Z 05006MPS 020V090 CAVOK 16/M02 Q1019 BECMG TL0350 12004MPS
Conditions at: ZSQD (QINGDAO/TSINGTAO, CN) observed 0200 UTC 19 April 2019
Temperature: 16.0°C (61°F)
Dewpoint: -2.0°C (28°F) [RH = 29%]
Pressure (altimeter): 30.09 inches Hg (1019.0 mb)
Winds: from the NE (50 degrees) at 14 MPH (12 knots; 6.2 m/s)
Visibility: 6 or more miles (10+ km)
Ceiling: ceiling and visibility are OK
Clouds: unknown
Weather: no significant weather observed at this time

METAR text: ZSQD 190100Z 04006MPS CAVOK 16/M02 Q1018 NOSIG
Conditions at: ZSQD (QINGDAO/TSINGTAO, CN) observed 0100 UTC 19 April 2019
Temperature: 16.0°C (61°F)
Dewpoint: -2.0°C (28°F) [RH = 29%]
Pressure (altimeter): 30.06 inches Hg (1018.0 mb)
Winds: from the NE (40 degrees) at 14 MPH (12 knots; 6.2 m/s)
Visibility: 6 or more miles (10+ km)
Ceiling: ceiling and visibility are OK
Clouds: unknown
Weather: no significant weather observed at this time

METAR text: ZSQD 190000Z 03006MPS CAVOK 14/M02 Q1018 NOSIG
Conditions at: ZSQD (QINGDAO/TSINGTAO, CN) observed 0000 UTC 19 April 2019
Temperature: 14.0°C (57°F)
Dewpoint: -2.0°C (28°F) [RH = 33%]
Pressure (altimeter): 30.06 inches Hg (1018.0 mb)
Winds: from the NNE (30 degrees) at 14 MPH (12 knots; 6.2 m/s)
Visibility: 6 or more miles (10+ km)
Ceiling: ceiling and visibility are OK
Clouds: unknown
Weather: no significant weather observed at this time

METAR text: ZSQD 182300Z 05005MPS CAVOK 13/M03 Q1017 NOSIG
Conditions at: ZSQD (QINGDAO/TSINGTAO, CN) observed 2300 UTC 18 April 2019
Temperature: 13.0°C (55°F)
Dewpoint: -3.0°C (27°F) [RH = 33%]
Pressure (altimeter): 30.03 inches Hg (1017.0 mb)
Winds: from the NE (50 degrees) at 12 MPH (10 knots; 5.1 m/s)
Visibility: 6 or more miles (10+ km)
Ceiling: ceiling and visibility are OK
Clouds: unknown
Weather: no significant weather observed at this time

METAR text: ZSQD 182200Z 04003MPS CAVOK 12/M01 Q1017 NOSIG
Conditions at: ZSQD (QINGDAO/TSINGTAO, CN) observed 2200 UTC 18 April 2019
Temperature: 12.0°C (54°F)
Dewpoint: -1.0°C (30°F) [RH = 40%]
Pressure (altimeter): 30.03 inches Hg (1017.0 mb)
Winds: from the NE (40 degrees) at 7 MPH (6 knots; 3.1 m/s)
Visibility: 6 or more miles (10+ km)
Ceiling: ceiling and visibility are OK
Clouds: unknown
Weather: no significant weather observed at this time

METAR text: ZSQD 182100Z 04003MPS CAVOK 11/M01 Q1016 NOSIG
Conditions at: ZSQD (QINGDAO/TSINGTAO, CN) observed 2100 UTC 18 April 2019
Temperature: 11.0°C (52°F)
Dewpoint: -1.0°C (30°F) [RH = 43%]
Pressure (altimeter): 30.00 inches Hg (1016.0 mb)
Winds: from the NE (40 degrees) at 7 MPH (6 knots; 3.1 m/s)
Visibility: 6 or more miles (10+ km)
Ceiling: ceiling and visibility are OK
Clouds: unknown
Weather: no significant weather observed at this time

METAR text: ZSQD 182000Z 04002MPS CAVOK 11/M01 Q1016 NOSIG
Conditions at: ZSQD (QINGDAO/TSINGTAO, CN) observed 2000 UTC 18 April 2019
Temperature: 11.0°C (52°F)
Dewpoint: -1.0°C (30°F) [RH = 43%]
Pressure (altimeter): 30.00 inches Hg (1016.0 mb)
Winds: from the NE (40 degrees) at 5 MPH (4 knots; 2.1 m/s)
Visibility: 6 or more miles (10+ km)
Ceiling: ceiling and visibility are OK
Clouds: unknown
Weather: no significant weather observed at this time

METAR text: ZSQD 181900Z 36003MPS CAVOK 09/00 Q1016 NOSIG
Conditions at: ZSQD (QINGDAO/TSINGTAO, CN) observed 1900 UTC 18 April 2019
Temperature: 9.0°C (48°F)
Dewpoint: 0.0°C (32°F) [RH = 53%]
Pressure (altimeter): 30.00 inches Hg (1016.0 mb)
Winds: from the N (360 degrees) at 7 MPH (6 knots; 3.1 m/s)
Visibility: 6 or more miles (10+ km)
Ceiling: ceiling and visibility are OK
Clouds: unknown
Weather: no significant weather observed at this time

METAR text: ZSQD 181800Z 05002MPS 010V070 CAVOK 11/M01 Q1016 NOSIG
Conditions at: ZSQD (QINGDAO/TSINGTAO, CN) observed 1800 UTC 18 April 2019
Temperature: 11.0°C (52°F)
Dewpoint: -1.0°C (30°F) [RH = 43%]
Pressure (altimeter): 30.00 inches Hg (1016.0 mb)
Winds: from the NE (50 degrees) at 5 MPH (4 knots; 2.1 m/s)
Visibility: 6 or more miles (10+ km)
Ceiling: ceiling and visibility are OK
Clouds: unknown
Weather: no significant weather observed at this time

METAR text: ZSQD 181700Z 05003MPS 030V100 CAVOK 12/M01 Q1016 NOSIG
Conditions at: ZSQD (QINGDAO/TSINGTAO, CN) observed 1700 UTC 18 April 2019
Temperature: 12.0°C (54°F)
Dewpoint: -1.0°C (30°F) [RH = 40%]
Pressure (altimeter): 30.00 inches Hg (1016.0 mb)
Winds: from the NE (50 degrees) at 7 MPH (6 knots; 3.1 m/s)
Visibility: 6 or more miles (10+ km)
Ceiling: ceiling and visibility are OK
Clouds: unknown
Weather: no significant weather observed at this time

METAR text: ZSQD 181600Z 04003MPS 360V060 CAVOK 13/M01 Q1016 NOSIG
Conditions at: ZSQD (QINGDAO/TSINGTAO, CN) observed 1600 UTC 18 April 2019
Temperature: 13.0°C (55°F)
Dewpoint: -1.0°C (30°F) [RH = 38%]
Pressure (altimeter): 30.00 inches Hg (1016.0 mb)
Winds: from the NE (40 degrees) at 7 MPH (6 knots; 3.1 m/s)
Visibility: 6 or more miles (10+ km)
Ceiling: ceiling and visibility are OK
Clouds: unknown
Weather: no significant weather observed at this time

METAR text: ZSQD 181500Z 04003MPS CAVOK 13/M01 Q1016 NOSIG
Conditions at: ZSQD (QINGDAO/TSINGTAO, CN) observed 1500 UTC 18 April 2019
Temperature: 13.0°C (55°F)
Dewpoint: -1.0°C (30°F) [RH = 38%]
Pressure (altimeter): 30.00 inches Hg (1016.0 mb)
Winds: from the NE (40 degrees) at 7 MPH (6 knots; 3.1 m/s)
Visibility: 6 or more miles (10+ km)
Ceiling: ceiling and visibility are OK
Clouds: unknown
Weather: no significant weather observed at this time

METAR text: ZSQD 181400Z 05004MPS 020V080 CAVOK 14/M00 Q1015 NOSIG
Conditions at: ZSQD (QINGDAO/TSINGTAO, CN) observed 1400 UTC 18 April 2019
Temperature: 14.0°C (57°F)
Dewpoint: 0.0°C (32°F) [RH = 38%]
Pressure (altimeter): 29.97 inches Hg (1015.0 mb)
Winds: from the NE (50 degrees) at 9 MPH (8 knots; 4.1 m/s)
Visibility: 6 or more miles (10+ km)
Ceiling: ceiling and visibility are OK
Clouds: unknown
Weather: no significant weather observed at this time

METAR text: ZSQD 181300Z 04005MPS 010V080 CAVOK 15/03 Q1015 NOSIG
Conditions at: ZSQD (QINGDAO/TSINGTAO, CN) observed 1300 UTC 18 April 2019
Temperature: 15.0°C (59°F)
Dewpoint: 3.0°C (37°F) [RH = 44%]
Pressure (altimeter): 29.97 inches Hg (1015.0 mb)
Winds: from the NE (40 degrees) at 12 MPH (10 knots; 5.1 m/s)
Visibility: 6 or more miles (10+ km)
Ceiling: ceiling and visibility are OK
Clouds: unknown
Weather: no significant weather observed at this time

Forecast for: ZSQD (QINGDAO/TSINGTAO, CN)
Text: TAF ZSQD 191910Z 2000/2024 18004MPS CAVOK TX22/2006Z TN12/2021Z
Forecast period: 0000 UTC 20 April 2019 to 0000 UTC 21 April 2019
Forecast type: FROM: standard forecast or significant change
Winds: from the S (180 degrees) at 9 MPH (8 knots; 4.1 m/s)
Visibility: 6 or more miles 10+ km)
Ceiling: unknown
Clouds: missing
Weather: no significant weather forecast for this period
Text: TEMPO 2018/2024 RA BKN009 BKN020
Forecast period: 1800 UTC 20 April 2019 to 0000 UTC 21 April 2019
Forecast type: TEMPORARY: The following changes expected for less than half the time period
Visibility: missing
Ceiling: 900 feet AGL
Clouds: broken clouds at 900 feet AGL
broken clouds at 2000 feet AGL
Weather: RA  (moderate rain)